A80 TRACON Summary / KATL TAF
ATL TRACON Summary:
An area of BKN/OVC 010-020 clouds will linger just east of the airfield until 14-15z, then expect FEW/SCT030-050 with increasing high-level clouds thru the afternoon. Surface winds will be north-northwest to occasional north-northeast at 4-10kts, becoming more steady from the northwest to north at 4-12kts by 15z. Flight Hazards in the TRACON airspace outside convection: None expected.

Updated:4/27/2015 6:41 AM
ATL Terminal Aerodrome Forecast:

FTUS80 KATL 271006 AAA
KATL 271003Z 2710/2812 33007KT P6SM SCT012
      TEMPO 2710/2714 02006KT BKN012
     FM271500 35012KT P6SM SCT045 SCT200
     FM280000 34008KT P6SM BKN200
ATL TRACON Area Remark:
NONE.
Convective Gate Forecast / Collaborative Convective Forecast Product / Vertical Wind Profile
Convective Gate Forecast
AIRMETs & SIGMETS/ Southeast Radar loop / Satellite Image (click on image to enlarge)

Southeast Radar Loop

 



USA.gov is the U.S. government's official web portal to all federal, state and local government web resources and services.